Time;durP1;ratioP1;P1;durP2;ratioP2;P2;SDS_P1;SDS_P2;PMS_P1;PMS_P2;Temp;Humidity;BMP_temperature;BMP_pressure;BME280_temperature;BME280_humidity;BME280_pressure;Samples;Min_cycle;Max_cycle;Signal;HPM_P1;HPM_P2
2021/10/13 00:01:09;;;;;;;10.35;1.20;;;24.00;17.30;;;;;;5087814;28;20434;-68
2021/10/13 00:03:36;;;;;;;10.85;1.45;;;23.90;17.30;;;;;;5088764;28;20077;-70
2021/10/13 00:06:02;;;;;;;11.00;1.15;;;23.90;17.40;;;;;;5096485;28;20214;-71
2021/10/13 00:08:28;;;;;;;13.18;1.25;;;23.90;17.50;;;;;;5085344;28;20068;-74
2021/10/13 00:10:55;;;;;;;8.25;1.20;;;23.80;17.40;;;;;;5098012;28;20150;-70
2021/10/13 00:13:21;;;;;;;15.48;1.20;;;23.60;17.50;;;;;;5085920;28;20079;-72
2021/10/13 00:15:48;;;;;;;15.85;1.63;;;23.50;17.50;;;;;;5087035;28;20072;-71
2021/10/13 00:18:14;;;;;;;13.65;1.23;;;23.40;17.80;;;;;;5090743;28;20538;-71
2021/10/13 00:20:40;;;;;;;12.20;1.20;;;23.40;18.20;;;;;;5086953;28;20415;-70
2021/10/13 00:23:07;;;;;;;7.03;2.00;;;23.40;18.30;;;;;;5092746;28;20270;-69
2021/10/13 00:25:33;;;;;;;11.27;1.42;;;23.30;17.90;;;;;;5088622;28;20438;-67
2021/10/13 00:27:59;;;;;;;15.60;1.50;;;23.20;18.00;;;;;;5087424;28;20103;-69
2021/10/13 00:30:26;;;;;;;13.50;1.42;;;23.20;18.30;;;;;;5087860;28;20592;-70
2021/10/13 00:32:52;;;;;;;10.95;1.40;;;23.10;18.20;;;;;;5089057;28;20072;-68
2021/10/13 00:35:19;;;;;;;9.70;1.20;;;23.00;18.50;;;;;;5088107;28;20603;-69
2021/10/13 00:37:45;;;;;;;10.60;1.35;;;23.00;18.10;;;;;;5087458;28;20097;-69
2021/10/13 00:40:12;;;;;;;10.98;1.60;;;22.80;18.40;;;;;;5089329;28;20069;-69
2021/10/13 00:42:38;;;;;;;8.27;1.20;;;22.80;18.70;;;;;;5091142;28;20076;-69
2021/10/13 00:45:06;;;;;;;6.45;1.10;;;22.90;18.90;;;;;;5089331;28;20068;-68
2021/10/13 00:47:36;;;;;;;16.92;1.38;;;22.90;18.40;;;;;;5089451;28;20075;-67
2021/10/13 00:50:11;;;;;;;11.45;1.45;;;22.70;18.70;;;;;;5096426;28;20099;-66
2021/10/13 00:52:43;;;;;;;13.05;1.70;;;22.60;19.10;;;;;;5092945;28;20158;-68
2021/10/13 00:55:17;;;;;;;13.30;1.25;;;22.50;19.00;;;;;;5094534;28;20072;-67
2021/10/13 00:57:48;;;;;;;15.10;1.48;;;22.50;19.30;;;;;;5092699;28;20160;-68
2021/10/13 01:00:16;;;;;;;14.60;1.63;;;22.40;19.60;;;;;;5094064;28;20127;-68
2021/10/13 01:02:56;;;;;;;12.77;1.13;;;22.40;19.50;;;;;;5092663;28;20121;-67
2021/10/13 01:05:28;;;;;;;8.88;1.50;;;22.40;19.50;;;;;;5093718;28;20159;-67
2021/10/13 01:07:57;;;;;;;9.55;1.70;;;22.30;19.80;;;;;;5091598;28;20096;-68
2021/10/13 01:10:36;;;;;;;9.77;1.45;;;22.20;19.80;;;;;;5090882;28;20068;-67
2021/10/13 01:13:56;;;;;;;13.63;2.08;;;22.20;20.10;;;;;;5091595;28;20079;-69
2021/10/13 01:16:43;;;;;;;12.15;1.55;;;22.00;20.20;;;;;;5022300;28;20097;-69
2021/10/13 01:19:19;;;;;;;18.85;2.13;;;21.90;20.20;;;;;;5033020;28;20074;-69
2021/10/13 01:22:07;;;;;;;12.50;1.80;;;21.90;20.30;;;;;;5024664;28;20081;-70
2021/10/13 01:25:04;;;;;;;20.25;1.88;;;21.80;20.70;;;;;;5036364;28;20116;-69
2021/10/13 01:27:51;;;;;;;17.38;1.80;;;22.00;20.50;;;;;;5031635;28;20089;-71
2021/10/13 01:30:20;;;;;;;19.77;2.10;;;22.30;19.70;;;;;;5033021;28;20102;-69
2021/10/13 01:32:59;;;;;;;11.00;1.58;;;22.60;19.60;;;;;;5030853;28;20085;-71
2021/10/13 01:35:28;;;;;;;17.75;1.38;;;23.10;19.60;;;;;;5026147;28;20069;-69
2021/10/13 01:37:58;;;;;;;13.00;1.63;;;23.70;19.00;;;;;;5003422;28;20094;-69
2021/10/13 01:40:30;;;;;;;16.58;1.65;;;23.80;19.00;;;;;;5019613;28;20528;-69
2021/10/13 01:43:01;;;;;;;11.73;1.90;;;24.20;18.80;;;;;;5031515;28;20090;-69
2021/10/13 01:45:28;;;;;;;16.45;2.05;;;24.20;19.00;;;;;;5018552;28;20212;-68
2021/10/13 01:47:56;;;;;;;14.48;1.90;;;24.50;19.40;;;;;;5031990;28;20115;-67
2021/10/13 01:50:25;;;;;;;16.95;1.90;;;24.80;19.40;;;;;;5045240;28;20553;-69
2021/10/13 01:52:53;;;;;;;17.60;1.80;;;25.40;19.30;;;;;;5092734;28;20184;-68
2021/10/13 01:55:22;;;;;;;17.85;2.15;;;25.40;19.00;;;;;;5091138;28;20164;-68
2021/10/13 01:57:54;;;;;;;20.70;2.45;;;25.20;18.90;;;;;;5072892;28;20167;-69
2021/10/13 02:00:22;;;;;;;21.98;2.15;;;25.40;19.10;;;;;;5087790;28;20565;-67
2021/10/13 02:02:51;;;;;;;25.05;2.03;;;25.10;18.40;;;;;;5092232;28;20077;-71
2021/10/13 02:05:18;;;;;;;12.65;2.20;;;24.90;19.10;;;;;;5088525;28;20534;-68
2021/10/13 02:07:46;;;;;;;20.27;2.20;;;24.90;19.50;;;;;;5072656;28;20107;-68
2021/10/13 02:10:14;;;;;;;26.50;2.42;;;24.70;18.90;;;;;;5073143;28;20204;-69
2021/10/13 02:12:45;;;;;;;24.58;3.35;;;25.00;19.30;;;;;;5073301;28;20068;-67
2021/10/13 02:15:13;;;;;;;24.20;3.08;;;24.90;19.20;;;;;;5073460;28;20126;-69
2021/10/13 02:17:51;;;;;;;20.42;3.30;;;25.20;19.20;;;;;;5072826;28;20080;-68
2021/10/13 02:20:19;;;;;;;14.10;2.38;;;25.50;19.20;;;;;;5092338;28;20134;-69
2021/10/13 02:22:50;;;;;;;17.25;2.40;;;25.70;19.30;;;;;;5092970;28;20088;-66
2021/10/13 02:25:17;;;;;;;11.85;2.33;;;25.60;19.10;;;;;;5089468;28;20109;-68
2021/10/13 02:28:01;;;;;;;17.27;2.53;;;25.30;19.30;;;;;;5072698;28;20459;-68
2021/10/13 02:30:28;;;;;;;16.20;2.95;;;25.30;20.00;;;;;;5057006;28;20084;-72
2021/10/13 02:32:54;;;;;;;24.58;2.90;;;25.30;20.20;;;;;;5089905;28;20073;-72
2021/10/13 02:35:21;;;;;;;25.50;4.00;;;25.20;20.50;;;;;;5090648;28;20575;-68
2021/10/13 02:37:47;;;;;;;25.55;3.42;;;25.20;20.50;;;;;;5090763;28;20073;-67
2021/10/13 02:40:14;;;;;;;37.47;3.60;;;25.20;20.80;;;;;;5089425;28;20069;-69
2021/10/13 02:42:40;;;;;;;22.30;3.80;;;24.50;21.40;;;;;;5089119;28;20542;-68
2021/10/13 02:45:07;;;;;;;33.30;7.80;;;24.40;22.20;;;;;;5089819;28;20434;-69
2021/10/13 02:47:56;;;;;;;35.92;7.45;;;23.50;21.50;;;;;;5089578;28;20130;-69
2021/10/13 02:50:49;;;;;;;31.08;6.45;;;23.40;21.90;;;;;;5083537;28;20080;-71
2021/10/13 02:53:28;;;;;;;35.03;4.80;;;23.30;21.60;;;;;;5081227;28;20084;-69
2021/10/13 02:56:11;;;;;;;32.38;4.88;;;23.20;21.70;;;;;;5072519;28;20110;-68
2021/10/13 02:58:49;;;;;;;21.58;3.80;;;23.00;22.30;;;;;;5090220;28;20079;-68
2021/10/13 03:01:16;;;;;;;27.75;4.40;;;22.80;22.20;;;;;;5073420;28;20079;-70
2021/10/13 03:03:51;;;;;;;32.47;4.43;;;23.00;22.10;;;;;;5071804;28;20073;-67
2021/10/13 03:06:20;;;;;;;29.63;4.57;;;23.10;22.20;;;;;;5072582;28;20163;-70
2021/10/13 03:08:53;;;;;;;27.27;4.78;;;23.60;22.10;;;;;;5056421;28;20535;-70
2021/10/13 03:11:24;;;;;;;37.38;4.55;;;23.50;22.80;;;;;;5089124;28;20100;-72
2021/10/13 03:13:52;;;;;;;16.67;4.70;;;23.40;23.40;;;;;;5089371;28;20068;-67
2021/10/13 03:16:20;;;;;;;33.03;5.38;;;22.90;24.00;;;;;;5071300;28;20081;-70
2021/10/13 03:18:47;;;;;;;34.28;5.22;;;22.40;24.00;;;;;;5088960;28;20068;-71
2021/10/13 03:21:15;;;;;;;41.50;5.93;;;22.20;24.30;;;;;;5089167;28;20072;-70
2021/10/13 03:23:42;;;;;;;42.92;6.28;;;22.30;24.30;;;;;;5090016;28;20073;-71
2021/10/13 03:26:13;;;;;;;44.92;5.32;;;22.70;24.10;;;;;;5088984;28;20145;-69
2021/10/13 03:28:41;;;;;;;26.60;5.13;;;23.00;24.20;;;;;;5073216;28;20080;-69
2021/10/13 03:31:08;;;;;;;26.77;5.93;;;22.40;24.00;;;;;;5089572;28;20560;-67
2021/10/13 03:33:37;;;;;;;37.40;7.07;;;21.80;24.50;;;;;;5071947;28;20096;-68
2021/10/13 03:36:09;;;;;;;35.92;9.52;;;21.40;25.40;;;;;;5088988;28;20072;-69
2021/10/13 03:38:36;;;;;;;46.15;11.52;;;21.60;25.50;;;;;;5088011;28;20136;-68
2021/10/13 03:41:02;;;;;;;45.53;11.15;;;21.90;24.90;;;;;;5088486;28;20068;-70
2021/10/13 03:43:31;;;;;;;46.92;11.93;;;22.10;25.00;;;;;;5071454;28;20120;-69
2021/10/13 03:45:57;;;;;;;;;;;22.00;25.40;;;;;;5072306;28;20084;-69
2021/10/13 03:48:24;;;;;;;44.22;12.80;;;21.50;26.30;;;;;;5089643;28;19961;-71
2021/10/13 03:50:50;;;;;;;48.60;13.93;;;21.30;26.60;;;;;;5089102;28;20096;-69
2021/10/13 03:53:16;;;;;;;;;;;21.30;26.40;;;;;;5091134;28;20163;-69
2021/10/13 03:55:43;;;;;;;57.72;8.60;;;21.30;26.50;;;;;;5090333;28;19960;-70
2021/10/13 03:58:09;;;;;;;52.63;7.30;;;20.90;25.70;;;;;;5088566;28;20611;-70
2021/10/13 04:00:35;;;;;;;;;;;20.80;25.60;;;;;;5089376;28;20517;-69
2021/10/13 04:03:02;;;;;;;43.35;8.15;;;21.00;25.40;;;;;;5089091;28;20509;-72
2021/10/13 04:05:28;;;;;;;;;;;20.80;26.90;;;;;;5089603;28;20434;-70
2021/10/13 04:07:54;;;;;;;64.13;8.48;;;20.50;26.90;;;;;;5088627;28;19979;-70
2021/10/13 04:10:20;;;;;;;55.97;9.30;;;20.50;27.10;;;;;;5089849;28;20143;-71
2021/10/13 04:12:46;;;;;;;;;;;20.90;26.90;;;;;;5089305;28;20083;-72
2021/10/13 04:15:14;;;;;;;52.70;8.85;;;20.90;27.50;;;;;;5089055;28;20381;-70
2021/10/13 04:17:40;;;;;;;57.10;10.25;;;20.40;26.50;;;;;;5092292;28;20088;-69
2021/10/13 04:20:10;;;;;;;69.22;10.65;;;20.20;27.10;;;;;;5088645;28;20129;-74
2021/10/13 04:22:37;;;;;;;49.97;10.45;;;20.20;27.20;;;;;;5089336;28;20069;-71
2021/10/13 04:25:05;;;;;;;59.47;11.18;;;20.40;27.40;;;;;;5089897;28;20084;-71
2021/10/13 04:27:31;;;;;;;68.90;12.32;;;20.70;27.10;;;;;;5092493;28;20083;-71
2021/10/13 04:29:57;;;;;;;61.75;13.55;;;20.80;27.00;;;;;;5094332;28;20104;-73
2021/10/13 04:32:24;;;;;;;55.28;10.77;;;20.40;27.40;;;;;;5092842;28;20179;-71
2021/10/13 04:34:50;;;;;;;55.28;11.93;;;20.00;28.40;;;;;;5093060;28;20069;-72
2021/10/13 04:37:17;;;;;;;74.25;13.30;;;20.10;29.00;;;;;;5079997;28;20126;-71
2021/10/13 04:39:43;;;;;;;62.17;12.63;;;20.20;29.20;;;;;;5092498;28;20120;-71
2021/10/13 04:42:10;;;;;;;59.47;13.45;;;20.50;28.80;;;;;;5092769;28;20076;-70
2021/10/13 04:44:37;;;;;;;74.07;12.25;;;20.60;28.70;;;;;;5091789;28;20502;-70
2021/10/13 04:47:05;;;;;;;76.95;13.20;;;20.40;28.50;;;;;;5093495;28;20084;-71
2021/10/13 04:49:31;;;;;;;82.38;14.15;;;20.20;28.40;;;;;;5090890;28;20084;-71
2021/10/13 04:51:57;;;;;;;76.28;15.55;;;19.90;28.70;;;;;;5090175;28;20096;-70
2021/10/13 04:54:24;;;;;;;;;;;19.80;28.10;;;;;;5093541;28;20154;-71
2021/10/13 04:56:50;;;;;;;99.72;16.77;;;19.70;28.60;;;;;;5093526;28;19956;-71
2021/10/13 04:59:16;;;;;;;86.32;17.58;;;19.70;28.70;;;;;;5091610;28;20065;-68
2021/10/13 05:01:42;;;;;;;;;;;19.60;29.40;;;;;;5090918;28;20111;-73
2021/10/13 05:04:09;;;;;;;84.68;16.88;;;19.80;29.20;;;;;;5092258;28;20632;-72
2021/10/13 05:06:35;;;;;;;;;;;19.50;28.90;;;;;;5092577;28;20491;-72
2021/10/13 05:09:01;;;;;;;76.60;15.00;;;19.30;28.50;;;;;;5092349;28;19964;-72
2021/10/13 05:11:28;;;;;;;83.28;15.52;;;19.30;28.60;;;;;;5091336;28;20548;-70
2021/10/13 05:13:54;;;;;;;;;;;19.40;28.80;;;;;;5092050;28;20069;-70
2021/10/13 05:16:20;;;;;;;65.65;16.00;;;19.60;29.20;;;;;;5093031;28;19963;-69
2021/10/13 05:18:46;;;;;;;;;;;19.40;29.40;;;;;;5093531;28;20088;-71
2021/10/13 05:21:12;;;;;;;73.85;14.95;;;19.10;29.60;;;;;;5091995;28;19956;-70
2021/10/13 05:23:38;;;;;;;;;;;19.10;29.60;;;;;;5091949;28;20079;-71
2021/10/13 05:26:05;;;;;;;72.75;15.77;;;19.10;30.10;;;;;;5091274;28;20418;-68
2021/10/13 05:28:31;;;;;;;;;;;19.00;29.70;;;;;;5092042;28;20574;-70
2021/10/13 05:30:57;;;;;;;71.32;15.90;;;18.80;29.90;;;;;;5090832;28;20067;-68
2021/10/13 05:33:23;;;;;;;;;;;18.90;30.10;;;;;;5092640;28;20112;-70
2021/10/13 05:35:49;;;;;;;93.53;17.02;;;19.10;30.10;;;;;;5092075;28;20437;-72
2021/10/13 05:38:15;;;;;;;;;;;19.30;30.00;;;;;;5091239;28;20157;-68
2021/10/13 05:40:42;;;;;;;92.72;16.85;;;19.20;29.60;;;;;;5091143;28;20026;-69
2021/10/13 05:43:08;;;;;;;82.63;16.13;;;19.10;30.10;;;;;;5089751;28;20099;-70
2021/10/13 05:45:35;;;;;;;99.18;17.02;;;18.80;31.00;;;;;;5090648;28;20117;-69
2021/10/13 05:48:01;;;;;;;82.70;17.27;;;18.50;30.00;;;;;;5090507;28;20163;-69
2021/10/13 05:50:28;;;;;;;92.35;17.00;;;18.50;29.30;;;;;;5088169;28;20080;-68
2021/10/13 05:52:54;;;;;;;93.47;16.63;;;18.50;30.00;;;;;;5090974;28;20092;-67
2021/10/13 05:55:20;;;;;;;;;;;18.60;29.90;;;;;;5090901;28;20502;-69
2021/10/13 05:57:47;;;;;;;79.32;18.70;;;18.50;30.10;;;;;;5089245;28;20003;-68
2021/10/13 06:00:13;;;;;;;;;;;18.20;31.70;;;;;;5090738;28;20083;-66
2021/10/13 06:02:39;;;;;;;80.45;17.15;;;18.10;31.50;;;;;;5092624;28;19957;-69
2021/10/13 06:05:06;;;;;;;;;;;18.00;31.10;;;;;;5091076;28;20178;-68
2021/10/13 06:07:32;;;;;;;82.20;17.40;;;18.00;30.50;;;;;;5089697;28;20333;-71
2021/10/13 06:09:58;;;;;;;;;;;18.00;30.30;;;;;;5090012;28;20076;-68
2021/10/13 06:12:24;;;;;;;81.63;18.65;;;18.10;31.50;;;;;;5089473;28;20075;-70
2021/10/13 06:14:51;;;;;;;65.93;19.05;;;17.90;32.50;;;;;;5089283;28;20517;-67
2021/10/13 06:17:17;;;;;;;;;;;17.90;31.50;;;;;;5091710;28;20115;-69
2021/10/13 06:19:43;;;;;;;75.68;20.38;;;17.90;31.60;;;;;;5086523;28;19960;-68
2021/10/13 06:22:09;;;;;;;109.78;22.52;;;18.00;31.60;;;;;;5091026;28;20089;-71
2021/10/13 06:24:35;;;;;;;;;;;18.10;31.70;;;;;;5072391;28;20111;-66
2021/10/13 06:27:02;;;;;;;94.97;20.02;;;18.20;32.10;;;;;;5088796;28;19960;-66
2021/10/13 06:29:28;;;;;;;;;;;18.20;32.70;;;;;;5073259;28;20076;-68
2021/10/13 06:31:54;;;;;;;101.75;24.67;;;18.20;32.90;;;;;;5088630;28;19972;-69
2021/10/13 06:34:21;;;;;;;101.75;25.35;;;18.10;31.90;;;;;;5089922;28;20061;-67
2021/10/13 06:36:46;;;;;;;;;;;18.00;32.00;;;;;;5091634;28;20073;-65
2021/10/13 06:39:13;;;;;;;112.57;26.95;;;18.00;32.80;;;;;;5088992;28;19987;-69
2021/10/13 06:41:39;;;;;;;;;;;17.90;32.60;;;;;;5090480;28;20104;-69
2021/10/13 06:44:06;;;;;;;107.75;27.10;;;17.90;32.40;;;;;;5090817;28;20007;-70
2021/10/13 06:46:32;;;;;;;104.95;28.52;;;17.90;32.40;;;;;;5088572;28;20123;-68
2021/10/13 06:48:58;;;;;;;;;;;18.00;32.40;;;;;;5088901;28;20088;-70
2021/10/13 06:51:24;;;;;;;101.57;27.52;;;18.10;32.10;;;;;;5089544;28;20006;-70
2021/10/13 06:53:50;;;;;;;;;;;18.20;31.30;;;;;;5089129;28;20076;-69
2021/10/13 06:56:17;;;;;;;91.85;28.83;;;18.40;31.20;;;;;;5088922;28;19972;-69
2021/10/13 06:58:43;;;;;;;;;;;18.30;31.50;;;;;;5089230;28;20077;-68
2021/10/13 07:01:09;;;;;;;99.25;28.25;;;18.20;32.10;;;;;;5090224;28;20002;-68
2021/10/13 07:03:35;;;;;;;92.20;26.17;;;18.00;32.60;;;;;;5088332;28;20612;-69
2021/10/13 07:06:01;;;;;;;;;;;17.90;34.30;;;;;;5089822;28;20133;-68
2021/10/13 07:08:28;;;;;;;92.00;28.70;;;17.90;34.10;;;;;;5089581;28;20047;-68
2021/10/13 07:10:54;;;;;;;103.50;28.75;;;17.80;33.90;;;;;;5086531;28;20513;-69
2021/10/13 07:13:20;;;;;;;;;;;17.80;33.60;;;;;;5091155;28;20076;-68
2021/10/13 07:15:46;;;;;;;100.55;32.08;;;17.80;33.60;;;;;;5088157;28;19960;-68
2021/10/13 07:18:12;;;;;;;;;;;17.50;33.50;;;;;;5089269;28;20596;-68
2021/10/13 07:20:39;;;;;;;108.15;31.95;;;17.30;33.70;;;;;;5086260;28;20002;-67
2021/10/13 07:23:06;;;;;;;;;;;17.10;33.90;;;;;;5090634;28;20137;-70
2021/10/13 07:25:34;;;;;;;122.07;32.15;;;17.20;34.10;;;;;;5088783;28;19963;-68
2021/10/13 07:28:01;;;;;;;109.15;32.70;;;17.50;33.70;;;;;;5088524;28;20096;-68
2021/10/13 07:30:31;;;;;;;101.70;31.42;;;17.50;33.50;;;;;;5088557;28;20076;-67
2021/10/13 07:32:58;;;;;;;89.75;31.35;;;17.50;33.90;;;;;;5086793;28;20099;-68
2021/10/13 07:35:27;;;;;;;107.30;32.00;;;17.40;33.90;;;;;;5072552;28;20068;-69
2021/10/13 07:37:56;;;;;;;121.00;33.28;;;17.40;33.70;;;;;;5087689;28;20084;-71
2021/10/13 07:40:25;;;;;;;115.85;33.75;;;17.40;33.70;;;;;;5086891;28;20107;-70
2021/10/13 07:42:51;;;;;;;124.32;34.42;;;17.50;33.30;;;;;;5087064;28;20155;-71
2021/10/13 07:45:18;;;;;;;108.18;32.65;;;17.50;33.50;;;;;;5088251;28;20564;-70
2021/10/13 07:47:45;;;;;;;108.40;31.52;;;17.50;33.60;;;;;;5089449;28;20076;-70
2021/10/13 07:50:13;;;;;;;102.20;30.77;;;17.50;34.40;;;;;;5088658;28;20167;-69
2021/10/13 07:52:40;;;;;;;102.47;31.23;;;17.50;33.70;;;;;;5087670;28;20084;-69
2021/10/13 07:55:07;;;;;;;97.72;32.13;;;17.40;34.10;;;;;;5089167;28;20104;-70
2021/10/13 07:57:34;;;;;;;93.28;29.90;;;17.30;34.40;;;;;;5087669;28;20553;-70
2021/10/13 08:00:00;;;;;;;112.45;29.77;;;17.20;35.40;;;;;;5087839;28;20526;-69
2021/10/13 08:02:26;;;;;;;106.25;30.92;;;17.10;34.90;;;;;;5086200;28;20141;-68
2021/10/13 08:04:53;;;;;;;101.95;28.95;;;17.10;35.10;;;;;;5087050;28;21502;-70
2021/10/13 08:07:19;;;;;;;93.00;28.98;;;17.10;35.20;;;;;;5087823;28;20084;-68
2021/10/13 08:09:46;;;;;;;105.57;29.80;;;16.90;34.20;;;;;;5087171;28;20080;-70
2021/10/13 08:12:12;;;;;;;;;;;16.90;34.00;;;;;;5086465;28;20458;-69
2021/10/13 08:14:39;;;;;;;107.43;30.98;;;16.90;34.00;;;;;;5087087;28;19957;-69
2021/10/13 08:17:05;;;;;;;;;;;16.80;35.50;;;;;;5086673;28;20141;-69
2021/10/13 08:19:31;;;;;;;107.63;30.65;;;16.90;35.70;;;;;;5086619;28;19956;-69
2021/10/13 08:21:57;;;;;;;101.07;30.67;;;16.90;35.50;;;;;;5088079;28;20068;-70
2021/10/13 08:24:24;;;;;;;102.47;30.40;;;16.70;35.00;;;;;;5089779;28;20095;-68
2021/10/13 08:26:50;;;;;;;;;;;16.60;34.70;;;;;;5089119;28;20080;-69
2021/10/13 08:29:16;;;;;;;108.72;27.30;;;16.60;33.90;;;;;;5086798;28;20441;-69
2021/10/13 08:31:42;;;;;;;;;;;16.60;33.80;;;;;;5087407;28;20092;-68
2021/10/13 08:34:09;;;;;;;88.13;26.05;;;16.60;32.70;;;;;;5089113;28;19962;-70
2021/10/13 08:36:35;;;;;;;;;;;16.50;32.60;;;;;;5072955;28;20085;-68
2021/10/13 08:39:01;;;;;;;87.47;24.55;;;16.40;32.00;;;;;;5088103;28;20006;-68
2021/10/13 08:41:27;;;;;;;;;;;16.40;32.50;;;;;;5088283;28;20530;-70
2021/10/13 08:43:54;;;;;;;107.05;22.90;;;16.40;32.00;;;;;;5088416;28;19984;-70
2021/10/13 08:46:20;;;;;;;77.45;21.70;;;16.50;32.00;;;;;;5088493;28;20118;-69
2021/10/13 08:48:46;;;;;;;88.82;21.88;;;16.70;31.80;;;;;;5089499;28;20537;-68
2021/10/13 08:51:12;;;;;;;;;;;16.60;31.00;;;;;;5084441;28;20097;-70
2021/10/13 08:53:39;;;;;;;81.05;19.05;;;16.50;30.60;;;;;;5070955;28;19979;-70
2021/10/13 08:56:05;;;;;;;73.47;19.27;;;16.50;31.40;;;;;;5086104;28;20073;-70
2021/10/13 08:58:37;;;;;;;;;;;16.50;32.00;;;;;;5087152;28;20145;-71
2021/10/13 09:01:03;;;;;;;75.47;19.42;;;16.70;31.90;;;;;;5087892;28;20048;-69
2021/10/13 09:03:32;;;;;;;76.32;19.05;;;16.60;31.30;;;;;;5085671;28;20143;-69
2021/10/13 09:06:13;;;;;;;92.55;20.00;;;16.60;30.90;;;;;;5085131;28;20080;-67
2021/10/13 09:09:04;;;;;;;80.20;17.35;;;16.50;31.30;;;;;;5088001;28;20080;-70
2021/10/13 09:11:32;;;;;;;65.75;16.35;;;16.50;32.00;;;;;;5087609;28;20087;-69
2021/10/13 09:14:26;;;;;;;49.70;14.82;;;16.50;31.40;;;;;;5089759;28;20480;-69
2021/10/13 09:17:09;;;;;;;56.42;14.70;;;16.40;30.60;;;;;;5087221;28;20081;-69
2021/10/13 09:19:37;;;;;;;56.38;13.30;;;16.40;31.10;;;;;;5090120;28;20076;-70
2021/10/13 09:22:04;;;;;;;44.58;12.23;;;16.40;31.20;;;;;;5088243;28;20077;-71
2021/10/13 09:24:31;;;;;;;;;;;16.50;30.90;;;;;;5091942;28;20069;-68
2021/10/13 09:26:58;;;;;;;;;;;16.40;29.70;;;;;;5090296;28;19957;-69
2021/10/13 09:29:25;;;;;;;16.88;4.43;;;16.30;28.30;;;;;;5090469;28;20010;-69
2021/10/13 09:32:00;;;;;;;17.85;3.60;;;16.20;28.00;;;;;;5089054;28;20104;-70
2021/10/13 09:34:26;;;;;;;18.77;3.40;;;16.20;28.10;;;;;;5088502;28;20532;-70
2021/10/13 09:37:01;;;;;;;18.17;3.00;;;16.10;27.60;;;;;;5089788;28;20077;-68
2021/10/13 09:39:30;;;;;;;13.25;2.53;;;16.00;27.30;;;;;;5077018;28;20153;-69
2021/10/13 09:41:59;;;;;;;17.05;2.45;;;15.90;27.30;;;;;;5073517;28;20076;-71
2021/10/13 09:44:28;;;;;;;12.35;1.83;;;15.90;27.60;;;;;;5091899;28;20083;-69
2021/10/13 09:47:05;;;;;;;9.48;2.15;;;15.90;27.60;;;;;;5090603;28;20095;-71
2021/10/13 09:49:40;;;;;;;12.05;2.00;;;16.00;27.60;;;;;;5090688;28;20087;-70
2021/10/13 09:52:08;;;;;;;16.17;2.17;;;15.80;27.90;;;;;;5086989;28;20111;-67
2021/10/13 09:54:35;;;;;;;16.30;1.73;;;15.80;28.10;;;;;;5073103;28;20068;-70
2021/10/13 09:57:26;;;;;;;15.25;1.70;;;15.60;27.90;;;;;;5089456;28;20430;-69
2021/10/13 09:59:55;;;;;;;13.10;1.85;;;15.70;28.40;;;;;;5087982;28;20077;-69
2021/10/13 10:02:24;;;;;;;14.38;2.03;;;15.80;28.60;;;;;;5088295;28;20073;-69
2021/10/13 10:04:52;;;;;;;14.15;1.95;;;15.70;28.20;;;;;;5088953;28;20073;-70
2021/10/13 10:07:22;;;;;;;8.63;1.75;;;15.60;28.30;;;;;;5088552;28;20168;-71
2021/10/13 10:10:24;;;;;;;12.45;1.80;;;15.60;28.70;;;;;;5091183;28;20077;-71
2021/10/13 10:13:06;;;;;;;8.98;1.70;;;15.60;28.50;;;;;;5023158;28;20666;-71
2021/10/13 10:15:34;;;;;;;14.07;1.88;;;15.60;28.70;;;;;;5021924;28;20144;-69
2021/10/13 10:18:02;;;;;;;16.95;2.03;;;15.80;28.90;;;;;;5021366;28;20193;-69
2021/10/13 10:20:40;;;;;;;11.60;1.65;;;15.70;28.90;;;;;;5021299;28;20618;-71
2021/10/13 10:23:32;;;;;;;10.75;1.30;;;15.70;28.80;;;;;;5026192;28;20168;-69
2021/10/13 10:26:20;;;;;;;11.75;1.52;;;15.70;28.80;;;;;;5038440;28;20098;-70
2021/10/13 10:28:55;;;;;;;13.73;1.50;;;15.70;29.00;;;;;;5019287;28;20177;-71
2021/10/13 10:31:53;;;;;;;8.23;1.40;;;15.70;28.90;;;;;;5021337;28;20093;-71
2021/10/13 10:34:23;;;;;;;14.65;1.60;;;15.50;28.70;;;;;;5016417;28;20532;-69
2021/10/13 10:36:50;;;;;;;12.52;1.88;;;15.40;29.20;;;;;;5021156;28;20216;-69
2021/10/13 10:39:18;;;;;;;7.55;1.30;;;15.30;29.30;;;;;;5020029;28;20510;-71
2021/10/13 10:41:49;;;;;;;17.38;1.70;;;15.50;29.20;;;;;;5035213;28;20086;-69
2021/10/13 10:44:32;;;;;;;12.88;1.40;;;15.50;29.50;;;;;;5036535;28;20108;-71
2021/10/13 10:47:01;;;;;;;11.43;1.92;;;15.40;29.30;;;;;;5057777;28;20187;-69
2021/10/13 10:49:46;;;;;;;9.50;1.50;;;15.60;29.60;;;;;;5088276;28;20465;-71
2021/10/13 10:52:14;;;;;;;7.97;1.23;;;15.50;29.50;;;;;;5087391;28;20120;-69
2021/10/13 10:54:50;;;;;;;10.30;1.30;;;15.50;29.50;;;;;;5090653;28;20076;-68
2021/10/13 10:57:47;;;;;;;16.67;1.30;;;15.60;29.60;;;;;;5088907;28;20513;-72
2021/10/13 11:00:22;;;;;;;11.45;1.60;;;15.60;29.70;;;;;;5086977;28;20305;-70
2021/10/13 11:02:50;;;;;;;6.22;1.30;;;15.60;29.60;;;;;;5105418;27;20542;-69
2021/10/13 11:05:21;;;;;;;14.88;1.88;;;15.50;29.60;;;;;;5089120;28;20453;-69
2021/10/13 11:07:48;;;;;;;10.35;1.70;;;15.40;29.80;;;;;;5088298;28;20114;-71
2021/10/13 11:10:15;;;;;;;14.88;1.42;;;15.50;29.60;;;;;;5088007;28;21463;-70
2021/10/13 11:12:59;;;;;;;4.22;1.00;;;15.50;29.50;;;;;;5087854;28;20188;-72
2021/10/13 11:15:27;;;;;;;13.20;1.45;;;15.50;29.40;;;;;;5087290;28;20072;-68
2021/10/13 11:17:54;;;;;;;9.93;1.55;;;15.50;29.50;;;;;;5087541;28;20089;-69
2021/10/13 11:20:30;;;;;;;7.05;1.40;;;15.50;29.40;;;;;;5087792;28;20069;-71
2021/10/13 11:23:02;;;;;;;10.70;1.20;;;15.40;29.60;;;;;;5071559;28;20138;-71
2021/10/13 11:25:30;;;;;;;12.52;1.42;;;15.30;30.10;;;;;;5088255;28;20431;-70
2021/10/13 11:28:11;;;;;;;15.95;1.52;;;15.40;30.00;;;;;;5089407;28;20123;-71
2021/10/13 11:30:49;;;;;;;19.05;1.60;;;15.40;30.00;;;;;;5086612;28;20076;-69
2021/10/13 11:33:20;;;;;;;9.57;1.30;;;15.30;29.90;;;;;;5089315;28;20171;-71
2021/10/13 11:35:49;;;;;;;16.17;1.88;;;15.30;30.40;;;;;;5087142;28;20519;-72
2021/10/13 11:38:18;;;;;;;16.58;2.10;;;15.20;30.60;;;;;;5088384;28;20124;-69
2021/10/13 11:40:45;;;;;;;8.23;1.88;;;15.20;30.60;;;;;;5087349;28;20073;-71
2021/10/13 11:43:12;;;;;;;;;;;15.30;30.70;;;;;;5087544;28;20168;-71
2021/10/13 11:45:49;;;;;;;11.38;2.55;;;15.40;31.00;;;;;;5085416;28;19976;-71
2021/10/13 11:48:26;;;;;;;9.90;2.50;;;15.30;31.20;;;;;;5071332;28;20076;-71
2021/10/13 11:50:53;;;;;;;18.38;4.18;;;15.20;31.90;;;;;;5088794;28;20107;-71
2021/10/13 11:53:21;;;;;;;20.00;4.28;;;15.20;32.10;;;;;;5088130;28;20080;-68
2021/10/13 11:55:48;;;;;;;16.25;4.65;;;15.20;32.20;;;;;;5088469;28;20591;-68
2021/10/13 11:58:24;;;;;;;14.95;4.10;;;15.10;32.00;;;;;;5087540;28;20175;-70
2021/10/13 12:00:51;;;;;;;19.05;4.47;;;15.00;31.90;;;;;;5086180;28;20442;-68
2021/10/13 12:03:17;;;;;;;18.90;4.05;;;15.00;31.80;;;;;;5086475;28;20576;-70
2021/10/13 12:05:54;;;;;;;17.20;4.28;;;14.90;31.30;;;;;;5087608;28;20612;-68
2021/10/13 12:08:35;;;;;;;13.55;4.38;;;14.90;30.50;;;;;;5085268;28;20096;-69
2021/10/13 12:11:10;;;;;;;10.95;3.20;;;14.80;30.20;;;;;;5086980;28;20100;-70
2021/10/13 12:13:40;;;;;;;23.40;3.65;;;14.80;29.80;;;;;;5088246;28;20160;-69
2021/10/13 12:16:09;;;;;;;11.23;3.00;;;14.80;29.90;;;;;;5071504;28;20084;-69
2021/10/13 12:18:42;;;;;;;12.02;3.17;;;14.80;30.00;;;;;;5087281;28;20169;-70
2021/10/13 12:21:30;;;;;;;15.48;3.22;;;14.80;29.30;;;;;;5070405;28;20092;-71
2021/10/13 12:24:04;;;;;;;11.60;2.95;;;14.90;29.70;;;;;;5087099;28;20091;-70
2021/10/13 12:26:42;;;;;;;17.60;3.10;;;14.90;29.70;;;;;;5087481;28;20079;-69
2021/10/13 12:29:18;;;;;;;20.52;3.30;;;15.00;29.20;;;;;;5086834;28;20073;-71
2021/10/13 12:31:46;;;;;;;15.67;2.80;;;14.90;29.70;;;;;;5085628;28;20091;-70
2021/10/13 12:34:18;;;;;;;16.38;3.08;;;14.70;31.20;;;;;;5086182;28;20806;-69
2021/10/13 12:36:53;;;;;;;17.65;3.88;;;14.70;31.90;;;;;;5085617;28;20096;-71
2021/10/13 12:39:24;;;;;;;14.73;3.50;;;14.80;32.70;;;;;;5085976;28;20099;-69
2021/10/13 12:41:51;;;;;;;23.20;4.00;;;14.80;32.40;;;;;;5070470;28;20419;-70
2021/10/13 12:44:23;;;;;;;12.38;3.05;;;14.80;32.40;;;;;;5087062;28;20158;-70
2021/10/13 12:47:00;;;;;;;19.27;3.92;;;14.60;32.40;;;;;;5089891;28;20439;-69
2021/10/13 12:49:31;;;;;;;14.90;3.50;;;14.70;32.20;;;;;;5090783;28;20072;-70
2021/10/13 12:51:59;;;;;;;16.77;3.40;;;14.70;30.70;;;;;;5091507;28;20112;-72
2021/10/13 12:54:28;;;;;;;12.73;3.55;;;14.60;29.80;;;;;;5092124;28;20069;-70
2021/10/13 12:56:54;;;;;;;15.70;3.50;;;14.60;29.60;;;;;;5090455;28;20545;-73
2021/10/13 12:59:22;;;;;;;17.27;3.58;;;14.50;29.50;;;;;;5093081;28;20077;-71